sensor_id;sensor_type;location;lat;lon;timestamp;pressure;altitude;pressure_sealevel;temperature;humidity
30073;BME280;16897;52.422;13.678;2023-02-19T00:02:53;101068.53;;;9.69;59.88
30073;BME280;16897;52.422;13.678;2023-02-19T00:06:56;101055.91;;;9.60;59.94
30073;BME280;16897;52.422;13.678;2023-02-19T00:11:06;101063.69;;;9.62;59.88
30073;BME280;16897;52.422;13.678;2023-02-19T00:15:08;101073.03;;;9.66;59.96
30073;BME280;16897;52.422;13.678;2023-02-19T00:19:12;101063.59;;;9.63;59.74
30073;BME280;16897;52.422;13.678;2023-02-19T00:23:13;101051.03;;;9.52;59.88
30073;BME280;16897;52.422;13.678;2023-02-19T00:27:15;101079.22;;;9.63;59.79
30073;BME280;16897;52.422;13.678;2023-02-19T00:31:28;101053.78;;;9.49;59.73
30073;BME280;16897;52.422;13.678;2023-02-19T00:35:33;101057.19;;;9.51;59.65
30073;BME280;16897;52.422;13.678;2023-02-19T00:39:35;101021.56;;;9.31;59.68
30073;BME280;16897;52.422;13.678;2023-02-19T00:43:36;101011.16;;;9.31;59.91
30073;BME280;16897;52.422;13.678;2023-02-19T00:47:37;101037.31;;;9.49;59.72
30073;BME280;16897;52.422;13.678;2023-02-19T00:51:41;101022.09;;;9.40;59.88
30073;BME280;16897;52.422;13.678;2023-02-19T00:55:43;101002.00;;;9.23;59.69
30073;BME280;16897;52.422;13.678;2023-02-19T00:59:44;101053.09;;;9.46;59.94
30073;BME280;16897;52.422;13.678;2023-02-19T01:03:46;101051.38;;;9.45;59.88
30073;BME280;16897;52.422;13.678;2023-02-19T01:07:48;101010.75;;;9.22;59.96
30073;BME280;16897;52.422;13.678;2023-02-19T01:11:49;101037.66;;;9.41;59.80
30073;BME280;16897;52.422;13.678;2023-02-19T01:15:51;101032.53;;;9.40;59.96
30073;BME280;16897;52.422;13.678;2023-02-19T01:19:53;101034.84;;;9.46;59.74
30073;BME280;16897;52.422;13.678;2023-02-19T01:23:55;101027.22;;;9.41;59.71
30073;BME280;16897;52.422;13.678;2023-02-19T01:27:59;101015.13;;;9.40;59.99
30073;BME280;16897;52.422;13.678;2023-02-19T01:32:01;101004.75;;;9.39;59.84
30073;BME280;16897;52.422;13.678;2023-02-19T01:36:03;100966.50;;;9.20;59.82
30073;BME280;16897;52.422;13.678;2023-02-19T01:40:06;100979.75;;;9.35;59.80
30073;BME280;16897;52.422;13.678;2023-02-19T01:48:30;100951.22;;;9.13;59.75
30073;BME280;16897;52.422;13.678;2023-02-19T01:52:34;100976.03;;;9.21;59.78
30073;BME280;16897;52.422;13.678;2023-02-19T01:56:37;100973.47;;;9.20;59.78
30073;BME280;16897;52.422;13.678;2023-02-19T02:00:39;100937.09;;;8.99;59.97
30073;BME280;16897;52.422;13.678;2023-02-19T02:04:41;100958.63;;;9.22;59.71
30073;BME280;16897;52.422;13.678;2023-02-19T02:08:42;100927.34;;;9.03;59.99
30073;BME280;16897;52.422;13.678;2023-02-19T02:13:06;100946.94;;;9.12;59.91
30073;BME280;16897;52.422;13.678;2023-02-19T02:17:24;100941.66;;;9.13;59.71
30073;BME280;16897;52.422;13.678;2023-02-19T02:25:58;100948.69;;;9.11;59.84
30073;BME280;16897;52.422;13.678;2023-02-19T02:30:09;100942.66;;;9.11;60.04
30073;BME280;16897;52.422;13.678;2023-02-19T02:34:25;100929.97;;;9.03;59.90
30073;BME280;16897;52.422;13.678;2023-02-19T02:38:28;100937.09;;;8.99;59.85
30073;BME280;16897;52.422;13.678;2023-02-19T02:42:33;100948.06;;;9.06;59.84
30073;BME280;16897;52.422;13.678;2023-02-19T02:46:41;100931.78;;;9.01;59.98
30073;BME280;16897;52.422;13.678;2023-02-19T02:54:53;100939.75;;;8.98;59.84
30073;BME280;16897;52.422;13.678;2023-02-19T02:59:05;100915.81;;;8.90;59.78
30073;BME280;16897;52.422;13.678;2023-02-19T03:03:09;100933.09;;;8.91;59.90
30073;BME280;16897;52.422;13.678;2023-02-19T03:07:10;100936.84;;;8.85;60.04
30073;BME280;16897;52.422;13.678;2023-02-19T03:11:13;100942.00;;;8.86;59.90
30073;BME280;16897;52.422;13.678;2023-02-19T03:15:37;100931.25;;;8.74;59.86
30073;BME280;16897;52.422;13.678;2023-02-19T03:19:58;100954.38;;;8.81;60.00
30073;BME280;16897;52.422;13.678;2023-02-19T03:24:01;100932.38;;;8.68;60.00
30073;BME280;16897;52.422;13.678;2023-02-19T03:28:26;100965.91;;;8.76;59.80
30073;BME280;16897;52.422;13.678;2023-02-19T03:37:52;100968.31;;;8.60;59.95
30073;BME280;16897;52.422;13.678;2023-02-19T03:42:04;100981.50;;;8.55;59.86
30073;BME280;16897;52.422;13.678;2023-02-19T03:46:14;100964.81;;;8.40;59.83
30073;BME280;16897;52.422;13.678;2023-02-19T03:54:34;100971.22;;;8.32;59.81
30073;BME280;16897;52.422;13.678;2023-02-19T04:03:19;100981.16;;;8.22;59.77
30073;BME280;16897;52.422;13.678;2023-02-19T04:07:23;100985.81;;;8.14;60.04
30073;BME280;16897;52.422;13.678;2023-02-19T04:11:26;100988.88;;;8.03;59.90
30073;BME280;16897;52.422;13.678;2023-02-19T04:15:35;100990.09;;;7.94;59.81
30073;BME280;16897;52.422;13.678;2023-02-19T04:19:39;100963.13;;;7.75;60.04
30073;BME280;16897;52.422;13.678;2023-02-19T04:23:43;100985.22;;;7.85;59.76
30073;BME280;16897;52.422;13.678;2023-02-19T04:27:45;100995.75;;;7.82;60.00
30073;BME280;16897;52.422;13.678;2023-02-19T04:31:47;101001.25;;;7.74;60.01
30073;BME280;16897;52.422;13.678;2023-02-19T04:35:49;101003.69;;;7.79;59.79
30073;BME280;16897;52.422;13.678;2023-02-19T04:39:50;101018.38;;;7.80;60.01
30073;BME280;16897;52.422;13.678;2023-02-19T04:43:52;101009.97;;;7.73;59.97
30073;BME280;16897;52.422;13.678;2023-02-19T04:47:53;101016.69;;;7.79;60.02
30073;BME280;16897;52.422;13.678;2023-02-19T04:51:54;101041.75;;;7.80;59.89
30073;BME280;16897;52.422;13.678;2023-02-19T04:55:56;101043.59;;;7.78;60.02
30073;BME280;16897;52.422;13.678;2023-02-19T04:59:58;101034.22;;;7.74;60.01
30073;BME280;16897;52.422;13.678;2023-02-19T05:03:59;101006.44;;;7.52;59.79
30073;BME280;16897;52.422;13.678;2023-02-19T05:08:01;101043.22;;;7.65;59.85
30073;BME280;16897;52.422;13.678;2023-02-19T05:12:03;101029.13;;;7.47;60.07
30073;BME280;16897;52.422;13.678;2023-02-19T05:16:10;101041.00;;;7.54;59.94
30073;BME280;16897;52.422;13.678;2023-02-19T05:20:14;101048.13;;;7.49;59.92
30073;BME280;16897;52.422;13.678;2023-02-19T05:24:15;101033.09;;;7.34;59.91
30073;BME280;16897;52.422;13.678;2023-02-19T05:28:17;101035.88;;;7.29;59.83
30073;BME280;16897;52.422;13.678;2023-02-19T05:32:20;101045.19;;;7.35;60.08
30073;BME280;16897;52.422;13.678;2023-02-19T05:36:22;101029.09;;;7.25;59.89
30073;BME280;16897;52.422;13.678;2023-02-19T05:40:23;101052.03;;;7.38;60.08
30073;BME280;16897;52.422;13.678;2023-02-19T05:44:25;101051.34;;;7.32;59.92
30073;BME280;16897;52.422;13.678;2023-02-19T05:48:27;101050.44;;;7.34;59.90
30073;BME280;16897;52.422;13.678;2023-02-19T05:52:28;101058.22;;;7.34;59.99
30073;BME280;16897;52.422;13.678;2023-02-19T05:56:37;101033.84;;;7.14;60.10
30073;BME280;16897;52.422;13.678;2023-02-19T06:00:39;101047.28;;;7.25;60.09
30073;BME280;16897;52.422;13.678;2023-02-19T06:04:40;101066.09;;;7.32;59.91
30073;BME280;16897;52.422;13.678;2023-02-19T06:08:41;101073.09;;;7.30;59.88
30073;BME280;16897;52.422;13.678;2023-02-19T06:12:43;101032.72;;;6.96;59.84
30073;BME280;16897;52.422;13.678;2023-02-19T06:16:45;101067.22;;;7.25;60.09
30073;BME280;16897;52.422;13.678;2023-02-19T06:20:46;101054.47;;;7.19;59.83
30073;BME280;16897;52.422;13.678;2023-02-19T06:24:48;101062.16;;;7.20;60.07
30073;BME280;16897;52.422;13.678;2023-02-19T06:28:51;101071.72;;;7.20;60.11
30073;BME280;16897;52.422;13.678;2023-02-19T06:32:53;101034.47;;;6.96;59.95
30073;BME280;16897;52.422;13.678;2023-02-19T06:36:55;101081.94;;;7.24;59.95
30073;BME280;16897;52.422;13.678;2023-02-19T06:41:00;101070.91;;;7.18;59.98
30073;BME280;16897;52.422;13.678;2023-02-19T06:45:02;101085.66;;;7.17;60.09
30073;BME280;16897;52.422;13.678;2023-02-19T06:49:04;101090.06;;;7.15;60.12
30073;BME280;16897;52.422;13.678;2023-02-19T06:53:05;101082.59;;;7.06;60.21
30073;BME280;16897;52.422;13.678;2023-02-19T06:57:09;101108.22;;;7.15;60.12
30073;BME280;16897;52.422;13.678;2023-02-19T07:01:10;101106.81;;;7.06;60.10
30073;BME280;16897;52.422;13.678;2023-02-19T07:05:12;101139.47;;;7.14;59.99
30073;BME280;16897;52.422;13.678;2023-02-19T07:09:14;101122.53;;;7.02;60.17
30073;BME280;16897;52.422;13.678;2023-02-19T07:13:16;101153.34;;;7.13;59.99
30073;BME280;16897;52.422;13.678;2023-02-19T07:17:17;101154.41;;;7.07;59.91
30073;BME280;16897;52.422;13.678;2023-02-19T07:21:19;101149.31;;;7.04;60.14
30073;BME280;16897;52.422;13.678;2023-02-19T07:25:20;101126.25;;;6.95;60.06
30073;BME280;16897;52.422;13.678;2023-02-19T07:29:22;101131.59;;;6.90;60.15
30073;BME280;16897;52.422;13.678;2023-02-19T07:33:23;101176.19;;;7.03;60.23
30073;BME280;16897;52.422;13.678;2023-02-19T07:37:24;101116.00;;;6.65;60.14
30073;BME280;16897;52.422;13.678;2023-02-19T07:41:26;101159.31;;;6.90;60.19
30073;BME280;16897;52.422;13.678;2023-02-19T07:45:31;101128.91;;;6.67;60.28
30073;BME280;16897;52.422;13.678;2023-02-19T07:49:32;101141.16;;;6.61;60.09
30073;BME280;16897;52.422;13.678;2023-02-19T07:53:34;101147.25;;;6.62;60.17
30073;BME280;16897;52.422;13.678;2023-02-19T07:57:35;101178.63;;;6.81;60.28
30073;BME280;16897;52.422;13.678;2023-02-19T08:01:37;101162.63;;;6.67;60.36
30073;BME280;16897;52.422;13.678;2023-02-19T08:05:57;101205.34;;;6.84;60.13
30073;BME280;16897;52.422;13.678;2023-02-19T08:09:58;101241.31;;;6.97;60.25
30073;BME280;16897;52.422;13.678;2023-02-19T08:14:18;101235.44;;;6.90;60.21
30073;BME280;16897;52.422;13.678;2023-02-19T08:18:24;101239.72;;;6.91;60.26
30073;BME280;16897;52.422;13.678;2023-02-19T08:22:26;101220.34;;;6.75;60.24
30073;BME280;16897;52.422;13.678;2023-02-19T08:26:28;101274.88;;;7.01;60.22
30073;BME280;16897;52.422;13.678;2023-02-19T08:30:30;101285.19;;;7.04;60.28
30073;BME280;16897;52.422;13.678;2023-02-19T08:34:32;101282.91;;;6.94;60.29
30073;BME280;16897;52.422;13.678;2023-02-19T08:38:34;101294.81;;;7.01;60.43
30073;BME280;16897;52.422;13.678;2023-02-19T08:42:36;101305.25;;;6.99;60.29
30073;BME280;16897;52.422;13.678;2023-02-19T08:46:37;101323.16;;;7.08;60.49
30073;BME280;16897;52.422;13.678;2023-02-19T08:50:39;101334.28;;;7.12;60.48
30073;BME280;16897;52.422;13.678;2023-02-19T08:54:41;101309.66;;;6.97;60.45
30073;BME280;16897;52.422;13.678;2023-02-19T08:58:42;101323.41;;;6.99;60.29
30073;BME280;16897;52.422;13.678;2023-02-19T09:02:44;101348.13;;;7.13;60.49
30073;BME280;16897;52.422;13.678;2023-02-19T09:06:45;101344.75;;;7.11;60.50
30073;BME280;16897;52.422;13.678;2023-02-19T09:10:59;101363.34;;;7.25;60.41
30073;BME280;16897;52.422;13.678;2023-02-19T09:15:01;101361.63;;;7.24;60.47
30073;BME280;16897;52.422;13.678;2023-02-19T09:19:03;101375.25;;;7.32;60.39
30073;BME280;16897;52.422;13.678;2023-02-19T09:23:05;101350.53;;;7.19;60.48
30073;BME280;16897;52.422;13.678;2023-02-19T09:27:08;101327.28;;;7.16;60.59
30073;BME280;16897;52.422;13.678;2023-02-19T09:31:15;101390.22;;;7.50;60.44
30073;BME280;16897;52.422;13.678;2023-02-19T09:35:17;101373.91;;;7.47;60.40
30073;BME280;16897;52.422;13.678;2023-02-19T09:39:18;101367.94;;;7.43;60.51
30073;BME280;16897;52.422;13.678;2023-02-19T09:43:21;101386.78;;;7.50;60.48
30073;BME280;16897;52.422;13.678;2023-02-19T09:47:29;101350.38;;;7.23;60.61
30073;BME280;16897;52.422;13.678;2023-02-19T09:51:33;101389.44;;;7.48;60.56
30073;BME280;16897;52.422;13.678;2023-02-19T09:55:38;101369.03;;;7.36;60.69
30073;BME280;16897;52.422;13.678;2023-02-19T09:59:55;101412.53;;;7.58;60.34
30073;BME280;16897;52.422;13.678;2023-02-19T10:04:00;101416.81;;;7.59;60.61
30073;BME280;16897;52.422;13.678;2023-02-19T10:08:03;101425.31;;;7.64;60.65
30073;BME280;16897;52.422;13.678;2023-02-19T10:12:13;101416.75;;;7.62;60.48
30073;BME280;16897;52.422;13.678;2023-02-19T10:16:24;101439.84;;;7.71;60.47
30073;BME280;16897;52.422;13.678;2023-02-19T10:20:26;101435.44;;;7.73;60.47
30073;BME280;16897;52.422;13.678;2023-02-19T10:24:28;101432.00;;;7.72;60.51
30073;BME280;16897;52.422;13.678;2023-02-19T10:28:34;101452.47;;;7.83;60.51
30073;BME280;16897;52.422;13.678;2023-02-19T10:32:35;101451.59;;;7.83;60.76
30073;BME280;16897;52.422;13.678;2023-02-19T10:36:38;101464.94;;;7.98;60.63
30073;BME280;16897;52.422;13.678;2023-02-19T10:40:43;101467.09;;;8.12;60.77
30073;BME280;16897;52.422;13.678;2023-02-19T10:44:56;101476.38;;;8.21;60.72
30073;BME280;16897;52.422;13.678;2023-02-19T10:49:06;101480.16;;;8.37;60.75
30073;BME280;16897;52.422;13.678;2023-02-19T10:53:21;101476.94;;;8.56;60.70
30073;BME280;16897;52.422;13.678;2023-02-19T10:57:25;101494.75;;;8.68;60.74
30073;BME280;16897;52.422;13.678;2023-02-19T11:01:34;101500.56;;;8.75;60.79
30073;BME280;16897;52.422;13.678;2023-02-19T11:05:36;101507.38;;;8.79;60.66
30073;BME280;16897;52.422;13.678;2023-02-19T11:09:40;101514.13;;;8.84;60.69
30073;BME280;16897;52.422;13.678;2023-02-19T11:13:45;101513.91;;;8.91;60.76
30073;BME280;16897;52.422;13.678;2023-02-19T11:17:54;101523.22;;;8.98;60.78
30073;BME280;16897;52.422;13.678;2023-02-19T11:21:57;101524.91;;;8.99;60.71
30073;BME280;16897;52.422;13.678;2023-02-19T11:26:02;101546.25;;;9.10;60.73
30073;BME280;16897;52.422;13.678;2023-02-19T11:34:30;101547.19;;;9.07;60.79
30073;BME280;16897;52.422;13.678;2023-02-19T11:38:31;101560.72;;;9.17;60.62
30073;BME280;16897;52.422;13.678;2023-02-19T11:42:47;101552.03;;;9.18;60.65
30073;BME280;16897;52.422;13.678;2023-02-19T11:51:38;101552.69;;;9.23;60.73
30073;BME280;16897;52.422;13.678;2023-02-19T11:55:57;101553.16;;;9.35;60.44
30073;BME280;16897;52.422;13.678;2023-02-19T12:04:26;101569.13;;;9.49;60.41
30073;BME280;16897;52.422;13.678;2023-02-19T12:39:01;101572.75;;;9.45;60.05
30073;BME280;16897;52.422;13.678;2023-02-19T12:43:20;101593.53;;;9.48;59.97
30073;BME280;16897;52.422;13.678;2023-02-19T12:47:32;101598.25;;;9.37;59.76
30073;BME280;16897;52.422;13.678;2023-02-19T12:51:46;101600.97;;;9.34;59.99
30073;BME280;16897;52.422;13.678;2023-02-19T12:55:48;101579.88;;;9.16;59.92
30073;BME280;16897;52.422;13.678;2023-02-19T13:00:03;101590.94;;;9.23;60.01
30073;BME280;16897;52.422;13.678;2023-02-19T13:04:26;101619.56;;;9.24;59.82
30073;BME280;16897;52.422;13.678;2023-02-19T13:08:38;101633.44;;;9.25;59.67
30073;BME280;16897;52.422;13.678;2023-02-19T13:12:42;101631.75;;;9.24;59.85
30073;BME280;16897;52.422;13.678;2023-02-19T13:16:47;101629.97;;;9.24;59.80
30073;BME280;16897;52.422;13.678;2023-02-19T13:20:50;101637.78;;;9.24;59.89
30073;BME280;16897;52.422;13.678;2023-02-19T13:24:54;101624.88;;;9.21;59.85
30073;BME280;16897;52.422;13.678;2023-02-19T13:33:17;101635.53;;;9.39;59.88
30073;BME280;16897;52.422;13.678;2023-02-19T13:37:21;101620.72;;;9.41;59.83
30073;BME280;16897;52.422;13.678;2023-02-19T13:41:31;101632.72;;;9.45;59.79
30073;BME280;16897;52.422;13.678;2023-02-19T13:45:38;101630.69;;;9.53;59.70
30073;BME280;16897;52.422;13.678;2023-02-19T13:49:41;101615.38;;;9.44;59.70
30073;BME280;16897;52.422;13.678;2023-02-19T13:57:44;101646.31;;;9.53;59.80
30073;BME280;16897;52.422;13.678;2023-02-19T14:06:03;101639.66;;;9.46;59.44
30073;BME280;16897;52.422;13.678;2023-02-19T14:10:11;101669.00;;;9.51;59.63
30073;BME280;16897;52.422;13.678;2023-02-19T14:14:47;101671.03;;;9.43;59.46
30073;BME280;16897;52.422;13.678;2023-02-19T14:18:49;101669.81;;;9.28;59.56
30073;BME280;16897;52.422;13.678;2023-02-19T14:23:07;101677.63;;;9.28;59.56
30073;BME280;16897;52.422;13.678;2023-02-19T14:27:09;101683.88;;;9.24;59.50
30073;BME280;16897;52.422;13.678;2023-02-19T14:35:38;101667.63;;;9.16;59.47
30073;BME280;16897;52.422;13.678;2023-02-19T14:39:40;101685.59;;;9.23;59.44
30073;BME280;16897;52.422;13.678;2023-02-19T14:43:45;101682.22;;;9.21;59.36
30073;BME280;16897;52.422;13.678;2023-02-19T14:47:49;101672.06;;;9.12;59.38
30073;BME280;16897;52.422;13.678;2023-02-19T14:52:02;101626.97;;;8.85;59.18
30073;BME280;16897;52.422;13.678;2023-02-19T14:56:05;101684.22;;;9.13;59.16
30073;BME280;16897;52.422;13.678;2023-02-19T15:00:36;101704.19;;;9.13;59.34
30073;BME280;16897;52.422;13.678;2023-02-19T15:04:38;101691.34;;;9.08;59.17
30073;BME280;16897;52.422;13.678;2023-02-19T15:08:47;101676.94;;;8.96;59.16
30073;BME280;16897;52.422;13.678;2023-02-19T15:12:55;101681.31;;;8.96;59.08
30073;BME280;16897;52.422;13.678;2023-02-19T15:17:02;101706.91;;;9.09;59.22
30073;BME280;16897;52.422;13.678;2023-02-19T15:21:22;101700.22;;;9.02;59.23
30073;BME280;16897;52.422;13.678;2023-02-19T15:25:51;101703.66;;;9.03;59.15
30073;BME280;16897;52.422;13.678;2023-02-19T15:29:53;101697.00;;;8.94;58.94
30073;BME280;16897;52.422;13.678;2023-02-19T15:33:54;101722.00;;;9.00;59.12
30073;BME280;16897;52.422;13.678;2023-02-19T15:37:56;101713.53;;;8.93;58.98
30073;BME280;16897;52.422;13.678;2023-02-19T15:41:59;101724.66;;;8.98;59.09
30073;BME280;16897;52.422;13.678;2023-02-19T15:46:05;101671.91;;;8.65;59.02
30073;BME280;16897;52.422;13.678;2023-02-19T15:50:24;101723.09;;;8.93;58.97
30073;BME280;16897;52.422;13.678;2023-02-19T15:54:38;101726.66;;;8.90;58.85
30073;BME280;16897;52.422;13.678;2023-02-19T15:58:53;101742.34;;;8.89;58.74
30073;BME280;16897;52.422;13.678;2023-02-19T16:02:56;101750.91;;;8.92;58.62
30073;BME280;16897;52.422;13.678;2023-02-19T16:07:01;101706.69;;;8.62;58.72
30073;BME280;16897;52.422;13.678;2023-02-19T16:11:19;101735.91;;;8.72;58.89
30073;BME280;16897;52.422;13.678;2023-02-19T16:15:27;101760.34;;;8.68;58.67
30073;BME280;16897;52.422;13.678;2023-02-19T16:19:31;101769.06;;;8.67;58.69
30073;BME280;16897;52.422;13.678;2023-02-19T16:23:35;101761.47;;;8.59;58.84
30073;BME280;16897;52.422;13.678;2023-02-19T16:27:41;101737.00;;;8.35;58.81
30073;BME280;16897;52.422;13.678;2023-02-19T16:31:54;101763.72;;;8.42;58.64
30073;BME280;16897;52.422;13.678;2023-02-19T16:35:57;101796.44;;;8.51;58.44
30073;BME280;16897;52.422;13.678;2023-02-19T16:48:25;101798.72;;;8.30;58.63
30073;BME280;16897;52.422;13.678;2023-02-19T16:52:27;101809.13;;;8.30;58.60
30073;BME280;16897;52.422;13.678;2023-02-19T16:56:29;101816.03;;;8.31;58.42
30073;BME280;16897;52.422;13.678;2023-02-19T17:00:31;101801.94;;;8.09;58.40
30073;BME280;16897;52.422;13.678;2023-02-19T17:04:32;101839.63;;;8.25;58.35
30073;BME280;16897;52.422;13.678;2023-02-19T17:08:42;101848.44;;;8.21;58.53
30073;BME280;16897;52.422;13.678;2023-02-19T17:12:44;101837.44;;;8.10;58.28
30073;BME280;16897;52.422;13.678;2023-02-19T17:16:45;101831.53;;;8.05;58.35
30073;BME280;16897;52.422;13.678;2023-02-19T17:20:49;101850.41;;;8.11;58.23
30073;BME280;16897;52.422;13.678;2023-02-19T17:24:53;101854.72;;;8.12;58.24
30073;BME280;16897;52.422;13.678;2023-02-19T17:28:56;101814.78;;;7.82;58.49
30073;BME280;16897;52.422;13.678;2023-02-19T17:32:57;101845.63;;;7.96;58.48
30073;BME280;16897;52.422;13.678;2023-02-19T17:36:59;101858.53;;;7.99;58.49
30073;BME280;16897;52.422;13.678;2023-02-19T17:41:00;101854.25;;;7.96;58.17
30073;BME280;16897;52.422;13.678;2023-02-19T17:45:01;101852.69;;;7.91;58.23
30073;BME280;16897;52.422;13.678;2023-02-19T17:49:03;101851.97;;;7.86;58.14
30073;BME280;16897;52.422;13.678;2023-02-19T17:53:05;101866.63;;;7.88;58.17
30073;BME280;16897;52.422;13.678;2023-02-19T17:57:06;101873.72;;;7.83;58.25
30073;BME280;16897;52.422;13.678;2023-02-19T18:01:07;101873.03;;;7.75;58.35
30073;BME280;16897;52.422;13.678;2023-02-19T18:05:09;101862.84;;;7.66;58.33
30073;BME280;16897;52.422;13.678;2023-02-19T18:09:10;101875.84;;;7.66;58.09
30073;BME280;16897;52.422;13.678;2023-02-19T18:13:15;101885.41;;;7.65;58.14
30073;BME280;16897;52.422;13.678;2023-02-19T18:17:16;101877.00;;;7.54;58.01
30073;BME280;16897;52.422;13.678;2023-02-19T18:21:22;101887.34;;;7.57;58.02
30073;BME280;16897;52.422;13.678;2023-02-19T18:25:25;101877.44;;;7.36;58.05
30073;BME280;16897;52.422;13.678;2023-02-19T18:29:27;101887.00;;;7.35;57.96
30073;BME280;16897;52.422;13.678;2023-02-19T18:33:32;101898.22;;;7.36;58.17
30073;BME280;16897;52.422;13.678;2023-02-19T18:37:34;101871.81;;;7.17;57.88
30073;BME280;16897;52.422;13.678;2023-02-19T18:41:35;101905.38;;;7.26;58.01
30073;BME280;16897;52.422;13.678;2023-02-19T18:45:37;101908.03;;;7.23;58.12
30073;BME280;16897;52.422;13.678;2023-02-19T18:49:44;101905.59;;;7.15;58.12
30073;BME280;16897;52.422;13.678;2023-02-19T18:53:46;101912.53;;;7.15;57.99
30073;BME280;16897;52.422;13.678;2023-02-19T18:57:48;101916.00;;;7.15;58.22
30073;BME280;16897;52.422;13.678;2023-02-19T19:01:51;101899.78;;;7.05;58.19
30073;BME280;16897;52.422;13.678;2023-02-19T19:05:53;101889.56;;;6.96;58.12
30073;BME280;16897;52.422;13.678;2023-02-19T19:09:55;101891.25;;;6.99;58.10
30073;BME280;16897;52.422;13.678;2023-02-19T19:13:56;101910.16;;;7.05;58.06
30073;BME280;16897;52.422;13.678;2023-02-19T19:17:58;101906.06;;;6.94;58.21
30073;BME280;16897;52.422;13.678;2023-02-19T19:22:00;101904.28;;;6.96;58.21
30073;BME280;16897;52.422;13.678;2023-02-19T19:26:04;101871.19;;;6.65;58.04
30073;BME280;16897;52.422;13.678;2023-02-19T19:30:07;101922.56;;;6.91;58.18
30073;BME280;16897;52.422;13.678;2023-02-19T19:34:09;101886.69;;;6.68;58.10
30073;BME280;16897;52.422;13.678;2023-02-19T19:38:11;101920.00;;;6.90;58.09
30073;BME280;16897;52.422;13.678;2023-02-19T19:42:12;101893.56;;;6.71;58.17
30073;BME280;16897;52.422;13.678;2023-02-19T19:46:14;101881.53;;;6.67;58.21
30073;BME280;16897;52.422;13.678;2023-02-19T19:50:20;101912.38;;;6.82;58.18
30073;BME280;16897;52.422;13.678;2023-02-19T19:54:21;101908.94;;;6.81;58.24
30073;BME280;16897;52.422;13.678;2023-02-19T19:58:23;101892.56;;;6.78;58.09
30073;BME280;16897;52.422;13.678;2023-02-19T20:02:25;101918.47;;;6.79;58.34
30073;BME280;16897;52.422;13.678;2023-02-19T20:06:29;101908.25;;;6.72;58.21
30073;BME280;16897;52.422;13.678;2023-02-19T20:10:31;101903.88;;;6.74;58.06
30073;BME280;16897;52.422;13.678;2023-02-19T20:14:32;101876.59;;;6.54;58.15
30073;BME280;16897;52.422;13.678;2023-02-19T20:18:34;101920.41;;;6.70;58.25
30073;BME280;16897;52.422;13.678;2023-02-19T20:22:36;101904.94;;;6.65;58.25
30073;BME280;16897;52.422;13.678;2023-02-19T20:26:39;101918.81;;;6.62;58.30
30073;BME280;16897;52.422;13.678;2023-02-19T20:30:41;101887.19;;;6.42;58.05
30073;BME280;16897;52.422;13.678;2023-02-19T20:34:44;101884.03;;;6.28;58.08
30073;BME280;16897;52.422;13.678;2023-02-19T20:38:48;101923.38;;;6.51;58.26
30073;BME280;16897;52.422;13.678;2023-02-19T20:42:49;101880.72;;;6.19;58.05
30073;BME280;16897;52.422;13.678;2023-02-19T20:46:51;101936.53;;;6.40;58.06
30073;BME280;16897;52.422;13.678;2023-02-19T20:50:53;101939.09;;;6.42;58.13
30073;BME280;16897;52.422;13.678;2023-02-19T20:54:59;101933.19;;;6.35;57.96
30073;BME280;16897;52.422;13.678;2023-02-19T20:59:00;101917.81;;;6.23;58.15
30073;BME280;16897;52.422;13.678;2023-02-19T21:03:02;101925.69;;;6.18;58.21
30073;BME280;16897;52.422;13.678;2023-02-19T21:07:04;101929.94;;;6.21;58.05
30073;BME280;16897;52.422;13.678;2023-02-19T21:11:05;101943.69;;;6.28;58.04
30073;BME280;16897;52.422;13.678;2023-02-19T21:15:07;101936.94;;;6.19;58.25
30073;BME280;16897;52.422;13.678;2023-02-19T21:19:09;101949.00;;;6.20;58.25
30073;BME280;16897;52.422;13.678;2023-02-19T21:23:10;101931.03;;;6.11;58.31
30073;BME280;16897;52.422;13.678;2023-02-19T21:27:12;101939.53;;;6.17;58.11
30073;BME280;16897;52.422;13.678;2023-02-19T21:31:13;101914.69;;;6.06;58.04
30073;BME280;16897;52.422;13.678;2023-02-19T21:35:15;101883.06;;;5.84;58.12
30073;BME280;16897;52.422;13.678;2023-02-19T21:39:18;101852.91;;;5.78;58.12
30073;BME280;16897;52.422;13.678;2023-02-19T21:43:20;101881.16;;;5.93;58.27
30073;BME280;16897;52.422;13.678;2023-02-19T21:47:21;101865.66;;;5.90;58.14
30073;BME280;16897;52.422;13.678;2023-02-19T21:51:31;101893.13;;;6.02;58.25
30073;BME280;16897;52.422;13.678;2023-02-19T21:55:32;101889.72;;;6.00;58.37
30073;BME280;16897;52.422;13.678;2023-02-19T21:59:34;101881.94;;;5.98;58.09
30073;BME280;16897;52.422;13.678;2023-02-19T22:03:35;101870.81;;;5.90;58.14
30073;BME280;16897;52.422;13.678;2023-02-19T22:07:37;101897.50;;;6.00;58.16
30073;BME280;16897;52.422;13.678;2023-02-19T22:11:39;101855.47;;;5.80;58.13
30073;BME280;16897;52.422;13.678;2023-02-19T22:15:40;101863.97;;;5.88;58.10
30073;BME280;16897;52.422;13.678;2023-02-19T22:19:41;101866.47;;;5.92;58.24
30073;BME280;16897;52.422;13.678;2023-02-19T22:23:48;101852.72;;;5.89;58.16
30073;BME280;16897;52.422;13.678;2023-02-19T22:27:50;101851.81;;;5.91;58.37
30073;BME280;16897;52.422;13.678;2023-02-19T22:31:51;101822.72;;;5.74;58.10
30073;BME280;16897;52.422;13.678;2023-02-19T22:35:53;101823.50;;;5.81;58.25
30073;BME280;16897;52.422;13.678;2023-02-19T22:39:54;101838.16;;;5.82;58.09
30073;BME280;16897;52.422;13.678;2023-02-19T22:43:56;101799.75;;;5.54;58.16
30073;BME280;16897;52.422;13.678;2023-02-19T22:47:58;101831.47;;;5.67;58.16
30073;BME280;16897;52.422;13.678;2023-02-19T22:52:01;101810.13;;;5.52;58.32
30073;BME280;16897;52.422;13.678;2023-02-19T22:56:04;101860.69;;;5.76;58.16